Martha's Vineyard, MA

6:58 AM EDT on August 22, 2014 (GMT -0400)
Martha's Vineyard | Change Station
CLOSE
Current Station
Airport
Location: Martha's Vineyard,
Elevation: 69 ft
Nearby Weather Stations

Elev 69 ft 41.39 °N, 70.61 °W | Updated 5 minutes ago

Overcast
Overcast
64 °F
Feels Like 64 °F
N
4
Wind Variable Wind from NNE

Today
High -- | Low -- °F
--% Chance of Precip.
Yesterday
High -- | Low -- °F
Precip. -- in
5:58 AM 7:31 PM
Waning Crescent, 9% visible
Pressure 30.07 in
Visibility 10.0 miles
Clouds Scattered Clouds 1400 ft
Overcast 8500 ft
Dew Point 62 °F
Humidity 93%
Rainfall 0.00 in
Snow Depth Not available.
UV 0 out of 12
Pollen 8.90 out of 12
Air Quality Not available.
Flu Activity Not available.
METAR KMVY 221053Z 03003KT 10SM SCT014 OVC085 18/17 A3007 RMK AO2 SLP181 T01780167

More Conditions Fewer Conditions

Pressure 30.07 in
Visibility 10.0 miles
Clouds Scattered Clouds 1400 ft
Overcast 8500 ft
Dew Point 62 °F
Humidity 93%
Rainfall 0.00 in
Snow Depth Not available.
UV 0 out of 12
Pollen 8.90 out of 12
Air Quality Not available.
Flu Activity Not available.
METAR KMVY 221053Z 03003KT 10SM SCT014 OVC085 18/17 A3007 RMK AO2 SLP181 T01780167

More Conditions Fewer Conditions

10-Day Weather Forecast

Almanac

Astronomy

Aug. 22, 2014 Rise Set
Actual Time 5:58 AM EDT 7:31 PM EDT
Civil Twilight 5:29 AM EDT 8:00 PM EDT
Nautical Twilight 4:54 AM EDT 8:35 PM EDT
Astronomical Twilight 4:16 AM EDT 9:12 PM EDT
Moon 3:17 AM EDT 5:38 PM EDT
Length of Visible Light 14h 31m
Length of Day
13h 32m
Tomorrow will be 2m 33s shorter.
Waning Crescent, 9% of the Moon is Illuminated
Today
Waning Crescent
Aug 25
New
Sep 2
First Quarter
Sep 8
Full
Sep 15
Last Quarter

Today's Extremes

State Highs State Lows

Community

WunderPhotos

Upload Photos

1,746,151 photos uploaded!

Nearby

Air Quality

  Air Quality AQ Index Pollutant
Yesterday Good
OZONE
Friday Good
PM2.5
Friday Good
OZONE

Snow Depth

Station Depth Elevation
No new snow has been reported.

Earthquake Activity

City Distance Mag. Time & Date
No recent earthquake activity has been reported nearby.
Minimum magnitude displayed is 2.5.

Coastal Water Temperatures

Place Temperature
Nantucket Island, MA 72.0 °F
Woods Hole, MA 71.1 °F
Fall River, MA 73.9 °F
Boston, MA 66.0 °F

Nearby Weather Stations